Time;durP1;ratioP1;P1;durP2;ratioP2;P2;SDS_P1;SDS_P2;PMS_P1;PMS_P2;Temp;Humidity;BMP_temperature;BMP_pressure;BME280_temperature;BME280_humidity;BME280_pressure;Samples;Min_cycle;Max_cycle;Signal;HPM_P1;HPM_P2
2021/11/09 00:01:11;;;;;;;1999.90;999.90;;;;;;;4.05;60.51;102073.91;5049389;27;99101;-72
2021/11/09 00:03:44;;;;;;;1999.90;999.90;;;;;;;4.04;60.67;102076.44;5035191;27;97902;-74
2021/11/09 00:06:20;;;;;;;1999.90;999.90;;;;;;;4.05;60.46;102075.63;5050578;27;97574;-73
2021/11/09 00:08:55;;;;;;;1999.90;999.90;;;;;;;4.04;60.73;102072.06;5050796;27;98808;-74
2021/11/09 00:11:23;;;;;;;1999.90;999.90;;;;;;;4.04;60.40;102072.06;5052773;27;97762;-74
2021/11/09 00:13:51;;;;;;;1999.90;999.90;;;;;;;4.05;60.45;102075.63;5052258;27;97777;-72
2021/11/09 00:16:19;;;;;;;1999.90;999.90;;;;;;;4.07;60.68;102081.91;5051849;27;96853;-71
2021/11/09 00:18:48;;;;;;;1999.90;999.90;;;;;;;4.06;60.46;102075.72;5051210;27;99648;-72
2021/11/09 00:21:16;;;;;;;1999.90;999.90;;;;;;;4.05;60.64;102079.16;5052077;27;101123;-74
2021/11/09 00:23:46;;;;;;;1999.90;999.90;;;;;;;4.05;60.51;102076.53;5050985;27;97875;-71
2021/11/09 00:26:16;;;;;;;1999.90;999.90;;;;;;;4.06;60.29;102075.72;5050935;27;97860;-71
2021/11/09 00:28:44;;;;;;;1999.90;999.90;;;;;;;4.07;60.38;102082.81;5070323;27;97898;-72
2021/11/09 00:31:12;;;;;;;1999.90;999.90;;;;;;;4.08;60.08;102078.44;5051859;27;99169;-72
2021/11/09 00:33:41;;;;;;;1999.90;999.90;;;;;;;4.09;60.25;102083.84;5050514;27;97219;-71
2021/11/09 00:36:09;;;;;;;1999.90;999.90;;;;;;;4.09;60.29;102075.94;5018203;27;97778;-72
2021/11/09 00:38:37;;;;;;;1999.90;999.90;;;;;;;4.09;60.14;102081.22;5068096;27;96990;-74
2021/11/09 00:41:06;;;;;;;1999.90;999.90;;;;;;;4.09;60.16;102085.56;5050522;27;100512;-71
2021/11/09 00:43:35;;;;;;;1999.90;999.90;;;;;;;4.09;60.09;102085.56;5050554;27;97158;-71
2021/11/09 00:46:03;;;;;;;1999.90;999.90;;;;;;;4.09;60.10;102090.81;5068513;27;97401;-72
2021/11/09 00:48:31;;;;;;;1999.90;999.90;;;;;;;4.08;60.13;102086.34;5032962;27;100727;-71
2021/11/09 00:50:59;;;;;;;1999.90;999.90;;;;;;;4.04;60.36;102086.97;5051342;27;100496;-71
2021/11/09 00:53:27;;;;;;;1999.90;999.90;;;;;;;4.00;60.11;102091.13;5033588;27;98258;-74
2021/11/09 00:55:55;;;;;;;1999.90;999.90;;;;;;;3.98;60.29;102098.00;5033585;27;98169;-71
2021/11/09 00:58:23;;;;;;;1999.90;999.90;;;;;;;3.94;60.32;102093.31;5032731;27;100068;-74
2021/11/09 01:00:52;;;;;;;1999.90;999.90;;;;;;;3.92;60.29;102092.31;5050065;27;99161;-71
2021/11/09 01:03:21;;;;;;;1999.90;999.90;;;;;;;3.87;60.60;102093.72;5033624;27;97958;-73
2021/11/09 01:05:48;;;;;;;1999.90;999.90;;;;;;;3.82;60.46;102097.78;5032819;27;98305;-74
2021/11/09 01:08:18;;;;;;;1999.90;999.90;;;;;;;3.77;60.57;102109.66;5068155;27;97038;-71
2021/11/09 01:10:49;;;;;;;1999.90;999.90;;;;;;;3.72;60.74;102105.81;5051412;27;99012;-74
2021/11/09 01:13:18;;;;;;;1999.90;999.90;;;;;;;3.67;60.60;102109.84;5069104;27;97979;-73
2021/11/09 01:15:50;;;;;;;1999.90;999.90;;;;;;;3.66;60.76;102101.84;5031015;27;96843;-72
2021/11/09 01:18:21;;;;;;;1999.90;999.90;;;;;;;3.65;60.66;102106.19;5051120;27;100552;-72
2021/11/09 01:20:50;;;;;;;1999.90;999.90;;;;;;;3.66;60.89;102096.59;5069815;27;99086;-71
2021/11/09 01:23:18;;;;;;;1999.90;999.90;;;;;;;3.66;61.07;102104.50;5051601;27;97323;-73
2021/11/09 01:25:46;;;;;;;1999.90;999.90;;;;;;;3.64;60.94;102109.59;5049521;27;98232;-72
2021/11/09 01:28:14;;;;;;;1999.90;999.90;;;;;;;3.64;60.64;102100.81;5068560;27;97011;-72
2021/11/09 01:30:43;;;;;;;1999.90;999.90;;;;;;;3.65;60.64;102097.38;5033352;27;99645;-72
2021/11/09 01:33:12;;;;;;;1999.90;999.90;;;;;;;3.66;60.59;102097.47;5050766;27;97194;-73
2021/11/09 01:35:41;;;;;;;1999.90;999.90;;;;;;;3.70;60.77;102110.06;5050937;27;97338;-73
2021/11/09 01:38:09;;;;;;;1999.90;999.90;;;;;;;3.72;60.72;102102.25;5069612;27;98625;-72
2021/11/09 01:40:38;;;;;;;1999.90;999.90;;;;;;;3.74;60.71;102106.84;5069094;27;99647;-73
2021/11/09 01:43:06;;;;;;;1999.90;999.90;;;;;;;3.77;60.55;102096.50;5069005;27;96929;-72
2021/11/09 01:45:35;;;;;;;1999.90;999.90;;;;;;;3.78;60.63;102098.34;5049258;27;96867;-72
2021/11/09 01:48:04;;;;;;;1999.90;999.90;;;;;;;3.78;60.66;102095.72;5033848;27;99667;-72
2021/11/09 01:50:35;;;;;;;1999.90;999.90;;;;;;;3.77;60.94;102091.25;5034333;27;97583;-72
2021/11/09 01:53:05;;;;;;;1999.90;999.90;;;;;;;3.77;60.79;102095.63;5050939;27;97865;-72
2021/11/09 01:55:34;;;;;;;1999.90;999.90;;;;;;;3.74;60.75;102098.94;5067475;27;97931;-73
2021/11/09 01:58:02;;;;;;;1999.90;999.90;;;;;;;3.74;60.99;102090.13;5067633;27;97674;-73
2021/11/09 02:00:34;;;;;;;1999.90;999.90;;;;;;;3.73;60.74;102098.84;5049330;27;99306;-73
2021/11/09 02:03:02;;;;;;;1999.90;999.90;;;;;;;3.72;60.65;102100.56;5068952;27;99058;-72
2021/11/09 02:05:31;;;;;;;1999.90;999.90;;;;;;;3.75;60.99;102103.38;5046552;27;97388;-72
2021/11/09 02:08:00;;;;;;;1999.90;999.90;;;;;;;3.77;60.77;102106.16;5066940;27;97053;-72
2021/11/09 02:10:32;;;;;;;1999.90;999.90;;;;;;;3.80;60.54;102095.81;5068716;27;97490;-72
2021/11/09 02:13:01;;;;;;;1999.90;999.90;;;;;;;3.81;60.80;102098.56;5036782;27;96959;-72
2021/11/09 02:15:30;;;;;;;1999.90;999.90;;;;;;;3.83;60.68;102096.03;5068273;27;96937;-74
2021/11/09 02:17:59;;;;;;;1999.90;999.90;;;;;;;3.85;60.84;102105.88;5032525;27;100736;-74
2021/11/09 02:20:29;;;;;;;1999.90;999.90;;;;;;;3.86;60.57;102094.50;5054282;27;101002;-73
2021/11/09 02:22:58;;;;;;;1999.90;999.90;;;;;;;3.88;60.58;102105.13;5053031;27;97635;-72
2021/11/09 02:25:29;;;;;;;1999.90;999.90;;;;;;;3.88;60.59;102100.78;5073007;27;96964;-73
2021/11/09 02:27:57;;;;;;;1999.90;999.90;;;;;;;3.86;60.80;102110.31;5054321;27;99273;-72
2021/11/09 02:30:26;;;;;;;1999.90;999.90;;;;;;;3.87;60.63;102109.53;5053307;27;97690;-72
2021/11/09 02:32:55;;;;;;;1999.90;999.90;;;;;;;3.88;60.64;102113.97;5054018;27;97889;-71
2021/11/09 02:35:24;;;;;;;1999.90;999.90;;;;;;;3.88;60.77;102111.31;5053654;27;97740;-72
2021/11/09 02:37:53;;;;;;;1999.90;999.90;;;;;;;3.89;60.57;102107.91;5053697;27;99861;-71
2021/11/09 02:40:23;;;;;;;1999.90;999.90;;;;;;;3.88;60.64;102113.97;5070320;27;96890;-72
2021/11/09 02:42:54;;;;;;;1999.90;999.90;;;;;;;3.88;60.81;102116.59;5052723;27;97322;-72
2021/11/09 02:45:32;;;;;;;1999.90;999.90;;;;;;;3.87;60.55;102116.50;5053950;27;98042;-71
2021/11/09 02:48:03;;;;;;;1999.90;999.90;;;;;;;3.89;60.50;102120.16;5071504;27;97942;-72
2021/11/09 02:50:34;;;;;;;1999.90;999.90;;;;;;;3.86;60.81;102112.94;5036492;27;98719;-72
2021/11/09 02:53:05;;;;;;;1999.90;999.90;;;;;;;3.86;60.57;102122.59;5054098;27;96797;-72
2021/11/09 02:55:37;;;;;;;1999.90;999.90;;;;;;;3.87;60.64;102119.13;5035521;27;96957;-72
2021/11/09 02:58:11;;;;;;;1999.90;999.90;;;;;;;3.86;60.49;102112.94;5053189;27;97685;-72
2021/11/09 03:00:48;;;;;;;1999.90;999.90;;;;;;;3.85;60.75;102113.75;5067403;27;97612;-73
2021/11/09 03:03:19;;;;;;;1999.90;999.90;;;;;;;3.87;60.92;102117.41;5051912;27;97164;-72
2021/11/09 03:05:51;;;;;;;1999.90;999.90;;;;;;;3.87;60.71;102127.03;5035803;27;97786;-72
2021/11/09 03:08:27;;;;;;;1999.90;999.90;;;;;;;3.86;60.79;102125.22;5050824;27;99140;-72
2021/11/09 03:10:57;;;;;;;1999.90;999.90;;;;;;;3.88;60.77;102135.03;5052692;27;98673;-73
2021/11/09 03:13:25;;;;;;;1999.90;999.90;;;;;;;3.86;60.74;102143.66;5035747;27;97528;-72
2021/11/09 03:15:57;;;;;;;1999.90;999.90;;;;;;;3.86;60.74;102141.00;5049719;27;97055;-73
2021/11/09 03:18:27;;;;;;;1999.90;999.90;;;;;;;3.89;60.83;102143.84;5035825;27;98788;-72
2021/11/09 03:22:59;;;;;;;1999.90;999.90;;;;;;;3.88;60.87;102140.28;5071215;27;98989;-72
2021/11/09 03:40:30;;;;;;;1999.90;999.90;;;;;;;3.96;60.84;102148.72;5071995;27;98891;-72
2021/11/09 03:45:45;;;;;;;1999.90;999.90;;;;;;;3.94;61.01;102153.91;5051744;27;97310;-71
2021/11/09 03:48:16;;;;;;;1999.90;999.90;;;;;;;3.93;60.96;102154.69;5034961;27;97625;-71
2021/11/09 03:50:45;;;;;;;1999.90;999.90;;;;;;;3.95;60.83;102160.97;5020581;27;98150;-71
2021/11/09 03:53:16;;;;;;;1999.90;999.90;;;;;;;3.96;60.99;102161.91;5036683;27;99196;-72
2021/11/09 03:56:06;;;;;;;1999.90;999.90;;;;;;;3.96;60.89;102167.16;5070003;27;97743;-71
2021/11/09 03:58:38;;;;;;;1999.90;999.90;;;;;;;3.95;60.81;102166.25;5069400;27;98015;-72
2021/11/09 04:01:09;;;;;;;1999.90;999.90;;;;;;;3.97;60.93;102177.81;5050361;27;99358;-72
2021/11/09 04:03:55;;;;;;;1999.90;999.90;;;;;;;3.99;60.82;102172.63;5048515;27;99723;-71
2021/11/09 04:06:30;;;;;;;1999.90;999.90;;;;;;;4.00;60.67;102175.41;5033097;27;97169;-72
2021/11/09 04:09:03;;;;;;;1999.90;999.90;;;;;;;4.02;60.72;102172.88;5065332;27;97015;-73
2021/11/09 04:11:39;;;;;;;1999.90;999.90;;;;;;;4.02;60.64;102171.13;5032748;27;99231;-74
2021/11/09 04:14:16;;;;;;;1999.90;999.90;;;;;;;4.01;60.72;102177.22;5050868;27;99285;-71
2021/11/09 04:16:49;;;;;;;1999.90;999.90;;;;;;;4.01;60.68;102169.31;5030403;27;97158;-73
2021/11/09 04:19:28;;;;;;;1999.90;999.90;;;;;;;4.02;60.71;102178.13;5068809;27;97356;-72
2021/11/09 04:27:33;;;;;;;1999.90;999.90;;;;;;;3.98;60.49;102187.53;5066507;27;97062;-73
2021/11/09 04:52:56;;;;;;;1999.90;999.90;;;;;;;3.94;60.61;102198.66;5048466;27;97736;-72
2021/11/09 05:01:17;;;;;;;1999.90;999.90;;;;;;;3.99;60.60;102207.78;5034913;27;98048;-73
2021/11/09 05:09:20;;;;;;;1999.90;999.90;;;;;;;3.93;60.67;102224.91;5050486;27;99642;-72
2021/11/09 05:11:48;;;;;;;1999.90;999.90;;;;;;;3.90;60.54;102219.41;5069524;27;96641;-72
2021/11/09 05:14:16;;;;;;;1999.90;999.90;;;;;;;3.89;60.77;102221.13;5029710;27;96975;-73
2021/11/09 05:16:45;;;;;;;1999.90;999.90;;;;;;;3.89;60.51;102229.03;5048038;27;98172;-71
2021/11/09 05:19:14;;;;;;;1999.90;999.90;;;;;;;3.89;60.71;102234.31;5050819;27;97946;-72
2021/11/09 05:21:42;;;;;;;1999.90;999.90;;;;;;;3.87;60.55;102235.91;5023695;27;97769;-72
2021/11/09 05:24:10;;;;;;;1999.90;999.90;;;;;;;3.86;60.75;102239.34;5068042;27;96846;-72
2021/11/09 05:26:41;;;;;;;1999.90;999.90;;;;;;;3.86;60.54;102241.06;5049770;27;101934;-73
2021/11/09 05:29:10;;;;;;;1999.90;999.90;;;;;;;3.84;60.77;102233.03;5068542;27;97652;-71
2021/11/09 05:31:38;;;;;;;1999.90;999.90;;;;;;;3.79;60.60;102237.06;5048279;27;96783;-71
2021/11/09 05:34:06;;;;;;;1999.90;999.90;;;;;;;3.75;60.81;102242.91;5031900;27;97644;-72
2021/11/09 05:36:37;;;;;;;1999.90;999.90;;;;;;;3.74;60.90;102255.97;5046517;27;98123;-72
2021/11/09 05:39:11;;;;;;;1999.90;999.90;;;;;;;3.68;60.88;102256.44;5050947;27;99481;-72
2021/11/09 05:41:40;;;;;;;1999.90;999.90;;;;;;;3.61;61.01;102255.84;5028902;27;96796;-72
2021/11/09 05:44:08;;;;;;;1999.90;999.90;;;;;;;3.56;61.11;102258.16;5069803;27;97845;-72
2021/11/09 05:46:36;;;;;;;1999.90;999.90;;;;;;;3.52;60.89;102268.34;5032916;27;97658;-72
2021/11/09 05:49:05;;;;;;;1999.90;999.90;;;;;;;3.49;61.09;102266.44;5048855;27;98468;-72
2021/11/09 05:51:35;;;;;;;1999.90;999.90;;;;;;;3.46;61.01;102270.56;5069048;27;96941;-71
2021/11/09 05:54:03;;;;;;;1999.90;999.90;;;;;;;3.41;61.45;102275.47;5051523;27;97007;-72
2021/11/09 05:56:31;;;;;;;1999.90;999.90;;;;;;;3.36;61.43;102274.22;5053587;27;100598;-72
2021/11/09 05:58:59;;;;;;;1999.90;999.90;;;;;;;3.34;61.54;102270.56;5052216;27;99191;-73
2021/11/09 06:01:28;;;;;;;1999.90;999.90;;;;;;;3.32;61.35;102272.16;5065454;27;98474;-72
2021/11/09 06:03:56;;;;;;;1999.90;999.90;;;;;;;3.30;61.32;102279.03;5051344;27;98264;-73
2021/11/09 06:06:24;;;;;;;1999.90;999.90;;;;;;;3.28;61.45;102275.34;5052504;27;99257;-72
2021/11/09 06:08:53;;;;;;;1999.90;999.90;;;;;;;3.29;61.21;102281.53;5072211;27;98246;-73
2021/11/09 06:11:21;;;;;;;1999.90;999.90;;;;;;;3.30;61.47;102278.09;5037816;27;97754;-72
2021/11/09 06:13:49;;;;;;;1999.90;999.90;;;;;;;3.31;61.19;102279.94;5050096;27;97737;-72
2021/11/09 06:16:19;;;;;;;1999.90;999.90;;;;;;;3.30;61.67;102284.28;5049125;27;98458;-73
2021/11/09 06:18:48;;;;;;;1999.90;999.90;;;;;;;3.35;61.05;102298.69;5049403;27;97883;-73
2021/11/09 06:21:15;;;;;;;1999.90;999.90;;;;;;;3.38;61.05;102301.56;5035395;27;96818;-71
2021/11/09 06:23:43;;;;;;;1999.90;999.90;;;;;;;3.40;61.02;102296.41;5069318;27;96840;-74
2021/11/09 06:26:13;;;;;;;1999.90;999.90;;;;;;;3.43;61.30;102307.16;5045286;27;98155;-74
2021/11/09 06:28:40;;;;;;;1999.90;999.90;;;;;;;3.45;60.87;102319.63;5069262;27;98927;-75
2021/11/09 06:31:08;;;;;;;1999.90;999.90;;;;;;;3.45;61.15;102324.88;5069123;27;96821;-72
2021/11/09 06:33:36;;;;;;;1999.90;999.90;;;;;;;3.47;60.82;102335.53;5050082;27;97714;-72
2021/11/09 06:36:05;;;;;;;1999.90;999.90;;;;;;;3.49;61.04;102339.19;5050227;27;100777;-72
2021/11/09 06:38:33;;;;;;;1999.90;999.90;;;;;;;3.48;61.09;102338.25;5035933;27;100374;-70
2021/11/09 06:41:00;;;;;;;1999.90;999.90;;;;;;;3.49;61.02;102345.38;5039097;27;97013;-72
2021/11/09 06:43:30;;;;;;;1999.90;999.90;;;;;;;3.51;60.86;102354.31;5071502;27;96820;-73
2021/11/09 06:45:57;;;;;;;1999.90;999.90;;;;;;;3.49;61.08;102350.63;5050197;27;100370;-69
2021/11/09 06:48:26;;;;;;;1999.90;999.90;;;;;;;3.48;61.11;102361.94;5033157;27;98506;-69
2021/11/09 06:50:54;;;;;;;1999.90;999.90;;;;;;;3.49;61.38;102360.25;5052636;27;96654;-70
2021/11/09 06:53:22;;;;;;;1999.90;999.90;;;;;;;3.48;61.32;102358.44;5070944;27;96765;-70
2021/11/09 06:55:50;;;;;;;1999.90;999.90;;;;;;;3.44;61.15;102362.50;5052381;27;97648;-69
2021/11/09 06:58:18;;;;;;;1999.90;999.90;;;;;;;3.40;61.30;102370.09;5051571;27;97754;-70
2021/11/09 07:00:47;;;;;;;1999.90;999.90;;;;;;;3.38;61.23;102371.69;5052963;27;96845;-72
2021/11/09 07:03:16;;;;;;;1999.90;999.90;;;;;;;3.36;61.42;102370.66;5037129;27;96840;-71
2021/11/09 07:05:44;;;;;;;1999.90;999.90;;;;;;;3.37;61.03;102377.75;5050069;27;99097;-71
2021/11/09 07:08:11;;;;;;;1999.90;999.90;;;;;;;3.36;61.32;102373.28;5052945;27;98761;-70
2021/11/09 07:10:39;;;;;;;1999.90;999.90;;;;;;;3.37;61.23;102377.75;5054343;27;97526;-71
2021/11/09 07:13:07;;;;;;;1999.90;999.90;;;;;;;3.40;60.87;102377.97;5052363;27;96823;-71
2021/11/09 07:15:34;;;;;;;1999.90;999.90;;;;;;;3.43;61.19;102387.00;5053386;27;97660;-69
2021/11/09 07:18:04;;;;;;;1999.90;999.90;;;;;;;3.48;61.11;102382.13;5055126;27;98848;-71
2021/11/09 07:20:32;;;;;;;1999.90;999.90;;;;;;;3.49;60.88;102391.81;5075903;27;96820;-72
2021/11/09 07:23:00;;;;;;;1999.90;999.90;;;;;;;3.50;61.15;102388.38;5073200;27;96908;-72
2021/11/09 07:25:28;;;;;;;1999.90;999.90;;;;;;;3.52;60.98;102398.22;5052353;27;97700;-70
2021/11/09 07:27:57;;;;;;;1999.90;999.90;;;;;;;3.51;61.08;102412.19;5053169;27;98870;-70
2021/11/09 07:30:28;;;;;;;1999.90;999.90;;;;;;;3.53;61.07;102407.06;5034695;27;97291;-69
2021/11/09 07:32:56;;;;;;;1999.90;999.90;;;;;;;3.54;61.21;102411.50;5050869;27;97610;-70
2021/11/09 07:35:25;;;;;;;1999.90;999.90;;;;;;;3.55;61.11;102398.44;5069846;27;97561;-70
2021/11/09 07:37:53;;;;;;;1999.90;999.90;;;;;;;3.58;61.08;102403.03;5069051;27;97599;-72
2021/11/09 07:40:23;;;;;;;1999.90;999.90;;;;;;;3.57;60.67;102402.13;5051882;27;96916;-68
2021/11/09 07:42:52;;;;;;;1999.90;999.90;;;;;;;3.60;60.95;102406.69;5052264;27;96947;-70
2021/11/09 07:45:22;;;;;;;1999.90;999.90;;;;;;;3.64;60.80;102417.56;5070235;27;97671;-71
2021/11/09 07:47:52;;;;;;;1999.90;999.90;;;;;;;3.66;60.69;102397.56;5052131;27;99243;-72
2021/11/09 07:50:20;;;;;;;1999.90;999.90;;;;;;;3.70;60.67;102411.88;5070375;27;97591;-73
2021/11/09 07:52:52;;;;;;;1999.90;999.90;;;;;;;3.72;60.47;102418.16;5052742;27;97244;-69
2021/11/09 07:55:21;;;;;;;1999.90;999.90;;;;;;;3.75;60.58;102426.31;5069442;27;99322;-70
2021/11/09 07:57:53;;;;;;;1999.90;999.90;;;;;;;3.78;60.33;102418.63;5069393;27;98828;-72
2021/11/09 08:00:24;;;;;;;1999.90;999.90;;;;;;;3.78;60.67;102422.19;5070448;27;96813;-72
2021/11/09 08:03:10;;;;;;;1999.90;999.90;;;;;;;3.79;60.49;102424.00;5035469;27;97266;-71
2021/11/09 08:05:44;;;;;;;1999.90;999.90;;;;;;;3.80;60.54;102424.94;5052102;27;98342;-72
2021/11/09 08:08:15;;;;;;;1999.90;999.90;;;;;;;3.82;60.47;102424.25;5050576;27;99673;-74
2021/11/09 08:10:44;;;;;;;1999.90;999.90;;;;;;;3.84;60.58;102433.16;5051170;27;98035;-70
2021/11/09 08:13:12;;;;;;;1999.90;999.90;;;;;;;3.84;60.18;102438.44;5070616;27;96919;-70
2021/11/09 08:15:40;;;;;;;1999.90;999.90;;;;;;;3.86;60.33;102436.81;5051920;27;96894;-71
2021/11/09 08:18:08;;;;;;;1999.90;999.90;;;;;;;3.88;60.37;102437.84;5069364;27;97851;-72
2021/11/09 08:20:56;;;;;;;1999.90;999.90;;;;;;;3.92;60.11;102434.66;5052395;27;97563;-71
2021/11/09 08:23:25;;;;;;;1999.90;999.90;;;;;;;3.96;60.38;102436.72;5070398;27;97316;-70
2021/11/09 08:25:53;;;;;;;1999.90;999.90;;;;;;;4.00;60.22;102438.78;5068972;27;98801;-70
2021/11/09 08:28:21;;;;;;;1999.90;999.90;;;;;;;4.03;60.21;102439.00;5051913;27;100253;-72
2021/11/09 08:30:52;;;;;;;1999.90;999.90;;;;;;;4.05;60.11;102442.66;5070765;27;97095;-71
2021/11/09 08:33:22;;;;;;;1999.90;999.90;;;;;;;4.07;60.08;102435.78;5035240;27;97363;-69
2021/11/09 08:35:50;;;;;;;1999.90;999.90;;;;;;;4.07;60.30;102435.78;5069170;27;97549;-71
2021/11/09 08:38:17;;;;;;;1999.90;999.90;;;;;;;4.08;60.03;102437.63;5049052;27;99032;-70
2021/11/09 08:40:47;;;;;;;1999.90;999.90;;;;;;;4.10;59.96;102449.19;5066307;27;97031;-70
2021/11/09 08:43:18;;;;;;;1999.90;999.90;;;;;;;4.13;60.30;102444.13;5070637;27;97264;-70
2021/11/09 08:45:52;;;;;;;1999.90;999.90;;;;;;;4.16;59.96;102441.72;5050834;27;98030;-69
2021/11/09 08:48:23;;;;;;;1999.90;999.90;;;;;;;4.19;59.88;102441.94;5069365;27;97625;-71
2021/11/09 08:50:54;;;;;;;1999.90;999.90;;;;;;;4.25;59.86;102446.75;5070124;27;98790;-71
2021/11/09 08:53:26;;;;;;;1999.90;999.90;;;;;;;4.28;59.79;102448.72;5052780;27;96819;-73
2021/11/09 09:04:16;;;;;;;1999.90;999.90;;;;;;;4.38;59.71;102445.91;5046143;27;97832;-71
2021/11/09 09:06:44;;;;;;;1999.90;999.90;;;;;;;4.39;59.69;102448.66;5069427;27;99908;-70
2021/11/09 09:09:12;;;;;;;1999.90;999.90;;;;;;;4.42;59.91;102450.63;5050751;27;99768;-71
2021/11/09 09:11:42;;;;;;;1999.90;999.90;;;;;;;4.45;59.52;102448.19;5048845;27;98919;-70
2021/11/09 09:14:10;;;;;;;1999.90;999.90;;;;;;;4.48;59.55;102448.44;5069313;27;96992;-72
2021/11/09 09:16:44;;;;;;;1999.90;999.90;;;;;;;4.53;59.52;102454.94;5050827;27;97811;-72
2021/11/09 09:19:13;;;;;;;1999.90;999.90;;;;;;;4.57;59.38;102441.19;5050406;27;99736;-73
2021/11/09 09:21:45;;;;;;;1999.90;999.90;;;;;;;4.61;59.33;102452.03;5068819;27;97461;-72
2021/11/09 09:24:24;;;;;;;1999.90;999.90;;;;;;;4.66;59.30;102439.19;5051572;27;97426;-71
2021/11/09 09:26:55;;;;;;;1999.90;999.90;;;;;;;4.71;59.35;102444.00;5022661;27;100451;-70
2021/11/09 09:29:34;;;;;;;1999.90;999.90;;;;;;;4.78;59.08;102442.69;5050406;27;98473;-72
2021/11/09 09:32:30;;;;;;;1999.90;999.90;;;;;;;4.85;58.87;102447.59;5068564;27;98471;-70
2021/11/09 09:54:41;;;;;;;1999.90;999.90;;;;;;;5.24;58.22;102447.78;5050514;27;97404;-70
2021/11/09 09:57:11;;;;;;;1999.90;999.90;;;;;;;5.28;58.17;102463.03;5032926;27;97727;-69
2021/11/09 09:59:42;;;;;;;1999.90;999.90;;;;;;;5.33;58.21;102452.75;5049500;27;99506;-69
2021/11/09 10:02:12;;;;;;;1999.90;999.90;;;;;;;5.38;58.28;102454.00;5066534;27;99038;-70
2021/11/09 10:04:43;;;;;;;1999.90;999.90;;;;;;;5.43;57.91;102458.78;5033689;27;97239;-70
2021/11/09 10:07:13;;;;;;;1999.90;999.90;;;;;;;5.49;57.72;102461.84;5048938;27;97284;-71
2021/11/09 10:09:44;;;;;;;1999.90;999.90;;;;;;;5.53;57.68;102449.75;5068502;27;97514;-70
2021/11/09 10:12:30;;;;;;;1999.90;999.90;;;;;;;5.57;57.27;102452.72;5032562;27;100742;-70
2021/11/09 10:15:02;;;;;;;1999.90;999.90;;;;;;;5.62;57.49;102458.31;5049454;27;97356;-71
2021/11/09 10:17:30;;;;;;;1999.90;999.90;;;;;;;5.66;57.35;102440.16;5068359;27;97763;-71
2021/11/09 10:20:00;;;;;;;1999.90;999.90;;;;;;;5.70;57.16;102449.19;5049657;27;100456;-70
2021/11/09 10:22:32;;;;;;;1999.90;999.90;;;;;;;5.74;57.46;102448.59;5067719;27;96704;-70
2021/11/09 10:25:01;;;;;;;1999.90;999.90;;;;;;;5.74;57.34;102449.47;5050026;27;97395;-72
2021/11/09 10:27:31;;;;;;;1999.90;999.90;;;;;;;5.77;57.26;102444.41;5050299;27;97655;-71
2021/11/09 10:30:02;;;;;;;1999.90;999.90;;;;;;;5.81;57.13;102443.78;5050540;27;99590;-71
2021/11/09 10:32:31;;;;;;;1999.90;999.90;;;;;;;5.85;56.78;102448.47;5048396;27;102563;-71
2021/11/09 10:35:01;;;;;;;1999.90;999.90;;;;;;;5.87;56.64;102451.22;5044955;27;96788;-72
2021/11/09 10:37:31;;;;;;;1999.90;999.90;;;;;;;5.87;56.79;102443.28;5048457;27;97147;-70
2021/11/09 10:40:15;;;;;;;1999.90;999.90;;;;;;;5.87;56.55;102444.19;5050382;27;99452;-71
2021/11/09 10:42:46;;;;;;;1999.90;999.90;;;;;;;5.92;56.67;102445.41;5052979;27;99383;-71
2021/11/09 10:45:17;;;;;;;1999.90;999.90;;;;;;;5.94;56.55;102446.44;5052095;27;97463;-71
2021/11/09 10:47:46;;;;;;;1999.90;999.90;;;;;;;5.98;56.49;102439.63;5070477;27;96775;-70
2021/11/09 10:50:19;;;;;;;1999.90;999.90;;;;;;;6.01;56.79;102445.13;5071369;27;97471;-70
2021/11/09 10:52:49;;;;;;;1999.90;999.90;;;;;;;6.02;56.39;102446.94;5053308;27;100572;-71
2021/11/09 10:55:21;;;;;;;1999.90;999.90;;;;;;;6.04;56.85;102446.25;5051989;27;96783;-71
2021/11/09 10:58:00;;;;;;;1999.90;999.90;;;;;;;6.07;56.55;102450.78;5049704;27;97847;-70
2021/11/09 11:03:15;;;;;;;1999.90;999.90;;;;;;;6.07;56.59;102446.44;5050913;27;100514;-71
2021/11/09 11:04:02;;;;;;;1999.90;999.90;;;;;;;6.13;56.84;102440.63;5068780;27;96719;-70
2021/11/09 11:06:31;;;;;;;1999.90;999.90;;;;;;;6.19;56.24;102444.63;5051840;27;97339;-70
2021/11/09 11:09:01;;;;;;;1999.90;999.90;;;;;;;6.23;56.38;102443.97;5052256;27;97169;-71
2021/11/09 11:11:50;;;;;;;1999.90;999.90;;;;;;;6.27;56.51;102438.94;5050861;27;100459;-71
2021/11/09 11:14:20;;;;;;;1999.90;999.90;;;;;;;6.31;56.47;102436.56;5068801;27;97530;-72
2021/11/09 11:16:54;;;;;;;1999.90;999.90;;;;;;;6.36;55.90;102439.53;5069600;27;97311;-70
2021/11/09 11:19:23;;;;;;;1999.90;999.90;;;;;;;6.41;55.92;102432.78;5051982;27;97028;-71
2021/11/09 11:21:52;;;;;;;1999.90;999.90;;;;;;;6.44;55.77;102430.34;5051985;27;99497;-73
2021/11/09 11:24:22;;;;;;;1999.90;999.90;;;;;;;6.47;55.60;102431.44;5033730;27;99437;-71
2021/11/09 11:26:54;;;;;;;1999.90;999.90;;;;;;;6.46;55.46;102428.72;5051393;27;96804;-71
2021/11/09 11:29:24;;;;;;;1999.90;999.90;;;;;;;6.50;55.52;102428.09;5052026;27;97255;-71
2021/11/09 11:31:54;;;;;;;1999.90;999.90;;;;;;;6.51;55.38;102422.91;5069155;27;98808;-71
2021/11/09 11:34:24;;;;;;;1999.90;999.90;;;;;;;6.53;55.57;102421.28;5052036;27;99026;-72
2021/11/09 11:36:53;;;;;;;1999.90;999.90;;;;;;;6.56;55.29;102418.81;5051185;27;97513;-70
2021/11/09 11:39:25;;;;;;;1999.90;999.90;;;;;;;6.59;55.42;102426.03;5069645;27;97402;-71
2021/11/09 11:41:56;;;;;;;1999.90;999.90;;;;;;;6.62;55.41;102421.84;5033832;27;97787;-71
2021/11/09 11:44:28;;;;;;;1999.90;999.90;;;;;;;6.65;55.08;102429.06;5067704;27;98070;-72
2021/11/09 11:46:59;;;;;;;1999.90;999.90;;;;;;;6.63;54.88;102421.06;5050608;27;97548;-72
2021/11/09 11:49:30;;;;;;;1999.90;999.90;;;;;;;6.64;55.07;102412.28;5070258;27;98088;-71
2021/11/09 11:52:24;;;;;;;1999.90;999.90;;;;;;;6.65;54.22;102413.22;5051107;27;97403;-71
2021/11/09 11:55:07;;;;;;;1999.90;999.90;;;;;;;6.66;54.78;102413.28;5070167;27;97718;-71
2021/11/09 11:57:45;;;;;;;1999.90;999.90;;;;;;;6.71;54.83;102416.22;5069462;27;97240;-71
2021/11/09 12:00:40;;;;;;;1999.90;999.90;;;;;;;6.70;54.29;102417.03;5043508;27;97421;-72
2021/11/09 12:03:34;;;;;;;1999.90;999.90;;;;;;;6.73;54.12;102407.56;5048393;27;99370;-70
2021/11/09 12:06:14;;;;;;;1999.90;999.90;;;;;;;6.78;54.94;102400.81;5046686;27;98454;-72
2021/11/09 12:08:49;;;;;;;1999.90;999.90;;;;;;;6.82;54.69;102402.84;5051436;27;97334;-72
2021/11/09 12:11:38;;;;;;;1999.90;999.90;;;;;;;6.85;53.79;102392.44;5069115;27;97041;-72
2021/11/09 12:14:14;;;;;;;1999.90;999.90;;;;;;;6.89;54.70;102398.88;5069106;27;97630;-71
2021/11/09 12:16:53;;;;;;;1999.90;999.90;;;;;;;6.89;54.33;102393.56;5050743;27;99232;-70
2021/11/09 12:20:04;;;;;;;1999.90;999.90;;;;;;;6.92;53.81;102391.09;5069270;27;98375;-71
2021/11/09 12:22:48;;;;;;;1999.90;999.90;;;;;;;6.94;53.77;102378.88;5053170;27;98000;-70
2021/11/09 12:25:17;;;;;;;1999.90;999.90;;;;;;;7.01;54.21;102389.00;5035158;27;99694;-71
2021/11/09 12:28:00;;;;;;;1999.90;999.90;;;;;;;7.01;53.69;102384.66;5070726;27;98736;-72
2021/11/09 12:30:47;;;;;;;1999.90;999.90;;;;;;;7.03;53.65;102376.78;5052858;27;97229;-72
2021/11/09 12:33:16;;;;;;;1999.90;999.90;;;;;;;7.04;53.93;102374.22;5069925;27;96800;-72
2021/11/09 12:36:20;;;;;;;1999.90;999.90;;;;;;;7.04;53.15;102382.16;5050300;27;99827;-71
2021/11/09 12:38:51;;;;;;;1999.90;999.90;;;;;;;7.06;53.95;102379.59;5051461;27;99279;-72
2021/11/09 12:41:21;;;;;;;1999.90;999.90;;;;;;;7.09;53.81;102371.88;5033671;27;96808;-72